createdAt,value
2019-03-01T00:00:22.923Z,100549.76
2019-03-01T00:02:51.374Z,100549.00
2019-03-01T00:05:28.435Z,100559.95
2019-03-01T00:08:14.969Z,100549.98
2019-03-01T00:11:01.445Z,100552.91
2019-03-01T00:14:09.495Z,100542.81
2019-03-01T00:16:40.976Z,100526.55
2019-03-01T00:19:24.168Z,100530.77
2019-03-01T00:22:18.022Z,100529.24
2019-03-01T00:24:49.888Z,100531.22
2019-03-01T00:27:30.447Z,100526.55
2019-03-01T00:30:10.934Z,100520.50
2019-03-01T00:32:57.565Z,100517.31
2019-03-01T00:35:45.392Z,100513.09
2019-03-01T00:38:25.728Z,100514.13
2019-03-01T00:41:05.973Z,100512.10
2019-03-01T00:43:46.451Z,100510.58
2019-03-01T00:46:15.014Z,100516.28
2019-03-01T00:48:43.492Z,100507.34
2019-03-01T00:51:11.921Z,100506.89
2019-03-01T00:53:40.391Z,100500.79
2019-03-01T00:56:08.855Z,100492.44
2019-03-01T00:58:37.333Z,100489.39
2019-03-01T01:01:05.769Z,100491.31
2019-03-01T01:03:34.214Z,100493.75
2019-03-01T01:06:02.754Z,100495.86
2019-03-01T01:08:31.264Z,100491.87
2019-03-01T01:10:59.683Z,100493.43
2019-03-01T01:13:28.195Z,100484.86
2019-03-01T01:15:56.665Z,100485.66
2019-03-01T01:18:25.513Z,100485.66
2019-03-01T01:20:53.971Z,100481.67
2019-03-01T01:23:22.458Z,100481.13
2019-03-01T01:25:50.891Z,100486.39
2019-03-01T01:28:19.360Z,100481.59
2019-03-01T01:30:47.881Z,100480.55
2019-03-01T01:33:16.353Z,100481.31
2019-03-01T01:35:44.815Z,100475.83
2019-03-01T01:38:13.265Z,100473.45
2019-03-01T01:44:10.519Z,100475.66
2019-03-01T01:46:38.994Z,100472.02
2019-03-01T01:49:07.430Z,100466.40
2019-03-01T01:51:35.876Z,100462.40
2019-03-01T01:54:04.356Z,100466.67
2019-03-01T01:56:32.797Z,100467.64
2019-03-01T01:59:01.244Z,100466.33
2019-03-01T02:01:29.777Z,100469.11
2019-03-01T02:03:58.293Z,100463.48
2019-03-01T02:06:27.975Z,100462.50
2019-03-01T02:08:56.419Z,100458.63
2019-03-01T02:11:25.252Z,100454.77
2019-03-01T02:13:53.688Z,100451.16
2019-03-01T02:16:22.116Z,100422.72
2019-03-01T02:18:57.446Z,100445.59
2019-03-01T02:21:20.799Z,100446.85
2019-03-01T02:23:49.247Z,100448.47
2019-03-01T02:26:17.681Z,100440.06
2019-03-01T02:28:46.146Z,100431.39
2019-03-01T02:31:14.580Z,100426.00
2019-03-01T02:33:43.177Z,100426.00
2019-03-01T02:36:12.045Z,100430.37
2019-03-01T02:38:40.496Z,100420.67
2019-03-01T02:41:08.965Z,100425.70
2019-03-01T02:43:37.378Z,100431.62
2019-03-01T02:46:05.828Z,100418.16
2019-03-01T02:48:34.324Z,100422.78
2019-03-01T02:51:02.834Z,100415.17
2019-03-01T02:53:31.267Z,100417.13
2019-03-01T02:55:59.821Z,100409.31
2019-03-01T02:58:28.255Z,100415.66
2019-03-01T03:00:56.974Z,100410.19
2019-03-01T03:03:25.390Z,100413.03
2019-03-01T03:06:13.360Z,100407.34
2019-03-01T03:08:41.915Z,100412.63
2019-03-01T03:11:10.456Z,100408.55
2019-03-01T03:13:39.340Z,100405.33
2019-03-01T03:16:07.775Z,100403.73
2019-03-01T03:18:36.302Z,100404.80
2019-03-01T03:21:04.917Z,100402.16
2019-03-01T03:23:33.462Z,100398.39
2019-03-01T03:26:01.918Z,100397.72
2019-03-01T03:28:30.370Z,100390.05
2019-03-01T03:30:59.088Z,100391.70
2019-03-01T03:33:27.538Z,100396.23
2019-03-01T03:35:56.120Z,100396.51
2019-03-01T03:38:24.567Z,100395.65
2019-03-01T03:40:53.042Z,100399.11
2019-03-01T03:43:22.835Z,100395.88
2019-03-01T03:45:51.559Z,100391.94
2019-03-01T03:48:19.953Z,100394.75
2019-03-01T03:50:48.411Z,100400.67
2019-03-01T03:53:16.890Z,100393.50
2019-03-01T03:55:45.322Z,100400.41
2019-03-01T03:58:13.742Z,100399.95
2019-03-01T04:00:42.194Z,100392.72
2019-03-01T04:03:10.706Z,100392.50
2019-03-01T04:05:39.227Z,100388.95
2019-03-01T04:08:07.908Z,100386.67
2019-03-01T04:10:36.340Z,100386.45
2019-03-01T04:13:04.805Z,100386.05
2019-03-01T04:15:33.281Z,100386.67
2019-03-01T04:18:01.748Z,100392.06
2019-03-01T04:20:30.255Z,100387.47
2019-03-01T04:22:58.676Z,100387.70
2019-03-01T04:25:27.180Z,100388.95
2019-03-01T04:27:55.607Z,100383.39
2019-03-01T04:30:24.130Z,100387.02
2019-03-01T04:32:52.571Z,100385.13
2019-03-01T04:35:21.212Z,100381.23
2019-03-01T04:37:49.685Z,100382.48
2019-03-01T04:40:18.174Z,100376.96
2019-03-01T04:42:46.622Z,100381.45
2019-03-01T04:45:18.828Z,100379.04
2019-03-01T04:47:47.297Z,100382.59
2019-03-01T04:50:15.801Z,100378.78
2019-03-01T04:52:44.305Z,100377.84
2019-03-01T04:55:18.103Z,100372.37
2019-03-01T04:57:46.552Z,100379.37
2019-03-01T05:00:20.722Z,100370.36
2019-03-01T05:02:49.200Z,100361.12
2019-03-01T05:05:18.152Z,100364.58
2019-03-01T05:07:46.918Z,100360.45
2019-03-01T05:10:16.188Z,100360.31
2019-03-01T05:12:44.635Z,100364.85
2019-03-01T05:15:15.599Z,100364.58
2019-03-01T05:17:44.428Z,100366.37
2019-03-01T05:20:13.457Z,100361.30
2019-03-01T05:22:41.861Z,100355.16
2019-03-01T05:25:11.518Z,100355.66
2019-03-01T05:27:40.003Z,100357.58
2019-03-01T05:30:18.978Z,100362.02
2019-03-01T05:32:47.432Z,100364.30
2019-03-01T05:35:16.061Z,100366.81
2019-03-01T05:37:44.497Z,100361.25
2019-03-01T05:40:15.258Z,100367.81
2019-03-01T05:42:43.707Z,100370.09
2019-03-01T05:45:21.176Z,100368.84
2019-03-01T05:47:50.280Z,100369.14
2019-03-01T05:50:18.708Z,100379.47
2019-03-01T05:52:47.157Z,100376.95
2019-03-01T05:55:15.595Z,100385.97
2019-03-01T05:58:20.465Z,100386.42
2019-03-01T06:00:50.007Z,100390.36
2019-03-01T06:03:27.222Z,100382.30
2019-03-01T06:05:55.743Z,100386.42
2019-03-01T06:08:27.278Z,100387.09
2019-03-01T06:10:58.918Z,100388.26
2019-03-01T06:13:36.173Z,100383.90
2019-03-01T06:16:27.443Z,100386.77
2019-03-01T06:19:13.923Z,100388.56
2019-03-01T06:22:07.947Z,100388.12
2019-03-01T06:24:48.393Z,100388.71
2019-03-01T06:27:39.544Z,100380.09
2019-03-01T06:30:27.564Z,100378.56
2019-03-01T06:33:15.717Z,100385.21
2019-03-01T06:35:53.400Z,100386.10
2019-03-01T06:38:56.790Z,100390.38
2019-03-01T06:41:46.302Z,100388.75
2019-03-01T06:44:33.104Z,100394.80
2019-03-01T06:47:19.400Z,100395.92
2019-03-01T06:49:49.487Z,100396.29
2019-03-01T06:52:19.612Z,100397.23
2019-03-01T06:54:48.407Z,100399.06
2019-03-01T06:57:16.843Z,100398.31
2019-03-01T06:59:45.315Z,100394.91
2019-03-01T07:02:21.011Z,100397.81
2019-03-01T07:04:49.470Z,100395.07
2019-03-01T07:07:17.899Z,100396.69
2019-03-01T07:09:46.423Z,100400.09
2019-03-01T07:12:14.898Z,100393.28
2019-03-01T07:14:43.311Z,100395.07
2019-03-01T07:17:11.830Z,100403.02
2019-03-01T07:19:40.306Z,100402.64
2019-03-01T07:22:08.738Z,100405.86
2019-03-01T07:24:37.210Z,100414.34
2019-03-01T07:27:05.685Z,100415.06
2019-03-01T07:29:34.134Z,100411.16
2019-03-01T07:32:02.664Z,100416.41
2019-03-01T07:34:31.103Z,100417.94
2019-03-01T07:36:59.579Z,100422.74
2019-03-01T07:39:28.020Z,100426.52
2019-03-01T07:41:56.481Z,100428.53
2019-03-01T07:44:24.912Z,100441.37
2019-03-01T07:46:54.284Z,100441.54
2019-03-01T07:49:22.991Z,100437.59
2019-03-01T07:51:51.797Z,100439.38
2019-03-01T07:54:22.264Z,100444.55
2019-03-01T07:56:50.459Z,100447.73
2019-03-01T07:59:18.899Z,100448.89
2019-03-01T08:01:47.456Z,100451.81
2019-03-01T08:04:15.980Z,100449.78
2019-03-01T08:06:45.575Z,100453.48
2019-03-01T08:09:14.625Z,100457.25
2019-03-01T08:11:43.044Z,100454.23
2019-03-01T08:14:11.486Z,100453.62
2019-03-01T08:16:39.928Z,100455.41
2019-03-01T08:19:08.399Z,100461.59
2019-03-01T08:21:36.829Z,100459.36
2019-03-01T08:24:07.657Z,100465.66
2019-03-01T08:26:35.577Z,100470.59
2019-03-01T08:29:04.007Z,100466.69
2019-03-01T08:31:32.456Z,100467.41
2019-03-01T08:34:00.899Z,100473.77
2019-03-01T08:36:29.377Z,100471.16
2019-03-01T08:39:01.014Z,100471.44
2019-03-01T08:41:27.971Z,100470.80
2019-03-01T08:43:56.456Z,100475.60
2019-03-01T08:46:26.754Z,100481.23
2019-03-01T08:48:55.154Z,100478.52
2019-03-01T08:51:26.555Z,100485.89
2019-03-01T08:53:53.793Z,100486.56
2019-03-01T08:56:26.194Z,100493.07
2019-03-01T08:58:52.514Z,100494.05
2019-03-01T09:01:25.734Z,100497.02
2019-03-01T09:04:03.402Z,100496.12
2019-03-01T09:06:31.864Z,100494.50
2019-03-01T09:09:00.746Z,100502.71
2019-03-01T09:11:30.616Z,100498.44
2019-03-01T09:13:59.209Z,100497.41
2019-03-01T09:16:27.743Z,100511.73
2019-03-01T09:18:56.210Z,100502.18
2019-03-01T09:21:24.653Z,100504.05
2019-03-01T09:23:54.991Z,100504.59
2019-03-01T09:26:23.354Z,100507.45
2019-03-01T09:28:51.804Z,100505.67
2019-03-01T09:31:20.279Z,100501.73
2019-03-01T09:33:48.761Z,100511.34
2019-03-01T09:36:21.608Z,100515.02
2019-03-01T09:38:50.066Z,100506.45
2019-03-01T09:41:18.620Z,100504.16
2019-03-01T09:43:47.092Z,100519.99
2019-03-01T09:46:15.559Z,100508.77
2019-03-01T09:48:45.609Z,100520.98
2019-03-01T09:51:15.791Z,100525.41
2019-03-01T09:53:44.548Z,100528.01
2019-03-01T09:56:13.855Z,100546.84
2019-03-01T09:58:42.600Z,100549.51
2019-03-01T10:01:16.778Z,100553.91
2019-03-01T10:03:45.593Z,100560.47
2019-03-01T10:06:14.048Z,100553.95
2019-03-01T10:08:42.501Z,100559.72
2019-03-01T10:11:12.872Z,100570.94
2019-03-01T10:13:41.681Z,100573.52
2019-03-01T10:16:10.166Z,100576.17
2019-03-01T10:18:38.762Z,100575.48
2019-03-01T10:21:07.228Z,100582.11
2019-03-01T10:23:35.689Z,100587.00
2019-03-01T10:26:04.326Z,100588.13
2019-03-01T10:28:32.798Z,100598.77
2019-03-01T10:31:01.268Z,100596.98
2019-03-01T10:33:29.709Z,100594.26
2019-03-01T10:35:58.193Z,100599.81
2019-03-01T10:38:26.694Z,100603.03
2019-03-01T10:40:55.137Z,100603.09
2019-03-01T10:43:23.607Z,100591.25
2019-03-01T10:45:52.047Z,100597.86
2019-03-01T10:48:20.536Z,100609.66
2019-03-01T10:50:49.012Z,100612.64
2019-03-01T10:53:17.765Z,100621.21
2019-03-01T10:55:46.308Z,100623.73
2019-03-01T10:58:14.771Z,100618.69
2019-03-01T11:00:43.346Z,100618.77
2019-03-01T11:03:11.849Z,100615.61
2019-03-01T11:05:40.296Z,100623.64
2019-03-01T11:08:08.755Z,100626.69
2019-03-01T11:10:39.057Z,100626.63
2019-03-01T11:13:10.435Z,100636.95
2019-03-01T11:15:38.886Z,100636.72
2019-03-01T11:18:07.475Z,100636.71
2019-03-01T11:20:35.952Z,100651.20
2019-03-01T11:23:04.539Z,100654.73
2019-03-01T11:25:32.992Z,100607.41
2019-03-01T11:28:01.470Z,100662.71
2019-03-01T11:30:32.018Z,100657.45
2019-03-01T11:33:00.525Z,100653.34
2019-03-01T11:35:29.034Z,100665.03
2019-03-01T11:37:57.437Z,100664.03
2019-03-01T11:40:31.241Z,100673.41
2019-03-01T11:43:00.003Z,100670.90
2019-03-01T11:45:28.512Z,100670.79
2019-03-01T11:47:56.986Z,100684.86
2019-03-01T11:50:25.876Z,100682.85
2019-03-01T11:52:54.296Z,100687.90
2019-03-01T11:55:22.866Z,100690.51
2019-03-01T11:57:51.606Z,100698.28
2019-03-01T12:00:25.137Z,100705.05
2019-03-01T12:02:53.590Z,100704.44
2019-03-01T12:05:22.504Z,100704.67
2019-03-01T12:07:51.229Z,100712.27
2019-03-01T12:10:25.641Z,100715.84
2019-03-01T12:12:54.166Z,100710.55
2019-03-01T12:15:22.765Z,100716.97
2019-03-01T12:17:51.227Z,100721.03
2019-03-01T12:20:26.814Z,100719.27
2019-03-01T12:22:55.296Z,100723.19
2019-03-01T12:25:23.739Z,100714.19
2019-03-01T12:27:52.238Z,100718.52
2019-03-01T12:30:25.673Z,100722.94
2019-03-01T12:32:54.149Z,100724.39
2019-03-01T12:35:22.814Z,100728.87
2019-03-01T12:37:51.459Z,100732.12
2019-03-01T12:40:30.124Z,100733.44
2019-03-01T12:42:58.620Z,100744.50
2019-03-01T12:45:27.156Z,100749.47
2019-03-01T12:47:55.640Z,100754.98
2019-03-01T12:50:24.267Z,100749.18
2019-03-01T12:52:52.782Z,100758.87
2019-03-01T12:55:26.816Z,100761.73
2019-03-01T12:57:55.257Z,100766.56
2019-03-01T13:00:29.586Z,100764.48
2019-03-01T13:02:58.064Z,100766.69
2019-03-01T13:05:29.407Z,100766.69
2019-03-01T13:07:56.669Z,100770.55
2019-03-01T13:10:36.782Z,100771.40
2019-03-01T13:13:08.342Z,100772.40
2019-03-01T13:15:36.579Z,100781.34
2019-03-01T13:18:05.026Z,100778.68
2019-03-01T13:20:36.632Z,100784.77
2019-03-01T13:23:04.970Z,100784.25
2019-03-01T13:25:34.202Z,100785.01
2019-03-01T13:28:02.638Z,100782.21
2019-03-01T13:30:32.487Z,100779.53
2019-03-01T13:33:02.550Z,100783.13
2019-03-01T13:35:31.655Z,100783.15
2019-03-01T13:38:00.260Z,100780.67
2019-03-01T13:40:28.691Z,100787.06
2019-03-01T13:42:57.207Z,100790.63
2019-03-01T13:45:28.395Z,100787.40
2019-03-01T13:47:56.851Z,100791.66
2019-03-01T13:50:25.352Z,100787.20
2019-03-01T13:52:53.787Z,100789.15
2019-03-01T13:55:23.833Z,100793.72
2019-03-01T13:57:52.565Z,100796.11
2019-03-01T14:00:21.992Z,100799.53
2019-03-01T14:02:50.681Z,100803.56
2019-03-01T14:05:19.724Z,100809.21
2019-03-01T14:07:55.522Z,100811.67
2019-03-01T14:10:24.499Z,100816.99
2019-03-01T14:12:52.985Z,100810.73
2019-03-01T14:15:21.491Z,100813.63
2019-03-01T14:17:50.094Z,100814.65
2019-03-01T14:20:21.049Z,100811.55
2019-03-01T14:22:49.810Z,100819.61
2019-03-01T14:25:18.306Z,100812.98
2019-03-01T14:27:46.924Z,100828.01
2019-03-01T14:30:20.704Z,100824.47
2019-03-01T14:32:49.311Z,100824.06
2019-03-01T14:35:20.492Z,100818.29
2019-03-01T14:37:54.147Z,100820.73
2019-03-01T14:40:22.465Z,100817.39
2019-03-01T14:42:49.596Z,100819.35
2019-03-01T14:45:26.555Z,100823.72
2019-03-01T14:47:55.403Z,100815.56
2019-03-01T14:50:25.385Z,100819.31
2019-03-01T14:52:58.381Z,100818.45
2019-03-01T14:55:27.055Z,100820.72
2019-03-01T14:57:59.008Z,100820.97
2019-03-01T15:00:36.368Z,100829.89
2019-03-01T15:03:07.912Z,100827.84
2019-03-01T15:05:38.585Z,100835.39
2019-03-01T15:08:07.743Z,100822.84
2019-03-01T15:10:36.236Z,100823.73
2019-03-01T15:13:04.755Z,100815.98
2019-03-01T15:15:33.275Z,100826.34
2019-03-01T15:18:01.773Z,100827.88
2019-03-01T15:20:30.191Z,100826.51
2019-03-01T15:22:58.658Z,100829.43
2019-03-01T15:25:27.124Z,100827.83
2019-03-01T15:27:55.718Z,100824.52
2019-03-01T15:30:24.153Z,100828.55
2019-03-01T15:32:52.657Z,100830.70
2019-03-01T15:35:21.151Z,100834.78
2019-03-01T15:37:49.594Z,100848.59
2019-03-01T15:40:18.106Z,100845.95
2019-03-01T15:42:46.559Z,100844.87
2019-03-01T15:45:16.126Z,100849.55
2019-03-01T15:47:44.712Z,100850.38
2019-03-01T15:50:14.383Z,100856.48
2019-03-01T15:52:45.718Z,100851.16
2019-03-01T15:55:13.179Z,100861.66
2019-03-01T15:57:41.790Z,100864.73
2019-03-01T16:00:15.731Z,100865.64
2019-03-01T16:02:44.337Z,100862.66
2019-03-01T16:05:14.290Z,100875.33
2019-03-01T16:07:43.074Z,100871.03
2019-03-01T16:10:17.161Z,100873.59
2019-03-01T16:12:45.652Z,100874.66
2019-03-01T16:15:15.638Z,100881.84
2019-03-01T16:17:44.216Z,100877.54
2019-03-01T16:20:14.804Z,100879.15
2019-03-01T16:22:43.219Z,100888.10
2019-03-01T16:25:20.184Z,100880.78
2019-03-01T16:27:50.737Z,100883.99
2019-03-01T16:30:19.147Z,100883.22
2019-03-01T16:32:50.369Z,100884.13
2019-03-01T16:35:19.036Z,100894.84
2019-03-01T16:37:52.160Z,100898.63
2019-03-01T16:40:21.092Z,100894.00
2019-03-01T16:42:53.487Z,100908.45
2019-03-01T16:45:21.005Z,100908.86
2019-03-01T16:47:50.548Z,100910.69
2019-03-01T16:50:20.386Z,100919.25
2019-03-01T16:52:48.823Z,100918.36
2019-03-01T16:55:28.812Z,100919.23
2019-03-01T16:58:06.077Z,100923.01
2019-03-01T17:00:27.692Z,100923.58
2019-03-01T17:03:02.167Z,100932.73
2019-03-01T17:05:30.681Z,100931.69
2019-03-01T17:07:59.816Z,100930.13
2019-03-01T17:10:30.206Z,100932.27
2019-03-01T17:12:59.683Z,100937.83
2019-03-01T17:15:28.455Z,100939.78
2019-03-01T17:17:57.154Z,100941.77
2019-03-01T17:20:25.684Z,100943.72
2019-03-01T17:22:54.454Z,100942.48
2019-03-01T17:25:23.442Z,100950.18
2019-03-01T17:27:53.084Z,100950.20
2019-03-01T17:30:25.836Z,100931.70
2019-03-01T17:32:54.268Z,100964.33
2019-03-01T17:35:22.762Z,100952.20
2019-03-01T17:37:51.230Z,100953.95
2019-03-01T17:40:21.871Z,100950.36
2019-03-01T17:42:53.273Z,100957.52
2019-03-01T17:45:24.662Z,100950.20
2019-03-01T17:47:55.291Z,100965.22
2019-03-01T17:50:23.438Z,100973.98
2019-03-01T17:52:51.890Z,100981.33
2019-03-01T17:55:24.228Z,100984.91
2019-03-01T17:57:52.453Z,100989.34
2019-03-01T18:00:42.933Z,100982.22
2019-03-01T18:03:11.378Z,100989.52
2019-03-01T18:05:41.443Z,100964.94
2019-03-01T18:08:10.169Z,100987.57
2019-03-01T18:10:38.724Z,100987.20
2019-03-01T18:13:07.354Z,100992.20
2019-03-01T18:15:35.797Z,100988.64
2019-03-01T18:18:04.235Z,100996.33
2019-03-01T18:20:34.049Z,101006.33
2019-03-01T18:23:03.351Z,101008.82
2019-03-01T18:25:31.939Z,101006.33
2019-03-01T18:28:00.360Z,101011.16
2019-03-01T18:30:30.781Z,101014.73
2019-03-01T18:32:59.313Z,101015.27
2019-03-01T18:35:27.762Z,101014.22
2019-03-01T18:37:56.290Z,101017.25
2019-03-01T18:40:24.739Z,101019.41
2019-03-01T18:42:53.306Z,101012.61
2019-03-01T18:45:23.115Z,101013.16
2019-03-01T18:47:51.550Z,101014.39
2019-03-01T18:50:31.269Z,101024.56
2019-03-01T18:53:00.041Z,101019.56
2019-03-01T18:55:28.598Z,101017.96
2019-03-01T18:57:57.023Z,101013.67
2019-03-01T19:00:46.004Z,101016.69
2019-03-01T19:03:14.519Z,101019.92
2019-03-01T19:05:43.172Z,101029.72
2019-03-01T19:08:11.670Z,101026.89
2019-03-01T19:10:40.125Z,101033.84
2019-03-01T19:13:08.596Z,101033.30
2019-03-01T19:15:37.190Z,101030.80
2019-03-01T19:18:06.204Z,101036.53
2019-03-01T19:20:41.433Z,101031.52
2019-03-01T19:23:10.417Z,101030.45
2019-03-01T19:25:39.197Z,101028.84
2019-03-01T19:28:07.656Z,101031.72
2019-03-01T19:30:36.163Z,101032.97
2019-03-01T19:33:04.823Z,101027.09
2019-03-01T19:35:34.048Z,101034.61
2019-03-01T19:38:02.476Z,101026.38
2019-03-01T19:40:30.984Z,101036.02
2019-03-01T19:42:59.382Z,101035.31
2019-03-01T19:45:27.921Z,101028.53
2019-03-01T19:48:01.394Z,101033.33
2019-03-01T19:50:28.832Z,100996.75
2019-03-01T19:52:57.300Z,101024.40
2019-03-01T19:55:25.764Z,101038.16
2019-03-01T19:57:54.567Z,101040.13
2019-03-01T20:00:27.857Z,101037.27
2019-03-01T20:02:56.360Z,101041.02
2019-03-01T20:05:31.953Z,101038.52
2019-03-01T20:08:01.179Z,101047.45
2019-03-01T20:10:29.886Z,101041.03
2019-03-01T20:12:58.401Z,101039.05
2019-03-01T20:15:31.081Z,101042.08
2019-03-01T20:17:59.709Z,101041.55
2019-03-01T20:20:29.896Z,101045.67
2019-03-01T20:22:59.455Z,101052.09
2019-03-01T20:25:28.351Z,101054.05
2019-03-01T20:27:56.862Z,101058.53
2019-03-01T20:30:30.158Z,101063.53
2019-03-01T20:32:56.747Z,101062.98
2019-03-01T20:35:26.119Z,101065.32
2019-03-01T20:37:54.628Z,101068.00
2019-03-01T20:40:26.698Z,101061.23
2019-03-01T20:42:55.875Z,101067.66
2019-03-01T20:45:30.116Z,101068.91
2019-03-01T20:47:58.915Z,101071.75
2019-03-01T20:50:27.340Z,101068.53
2019-03-01T20:52:55.872Z,101072.11
2019-03-01T20:55:24.340Z,101069.95
2019-03-01T20:57:53.178Z,101075.69
2019-03-01T21:00:27.366Z,101071.56
2019-03-01T21:02:56.744Z,101070.87
2019-03-01T21:05:29.213Z,101077.98
2019-03-01T21:07:55.527Z,101086.39
2019-03-01T21:10:31.593Z,101083.55
2019-03-01T21:13:00.205Z,101084.63
2019-03-01T21:15:28.469Z,101081.05
2019-03-01T21:17:58.609Z,101076.91
2019-03-01T21:20:27.297Z,101079.97
2019-03-01T21:23:02.280Z,101076.05
2019-03-01T21:25:30.759Z,101081.39
2019-03-01T21:28:00.879Z,101082.64
2019-03-01T21:30:33.989Z,101088.72
2019-03-01T21:33:02.589Z,101081.39
2019-03-01T21:35:31.097Z,101086.22
2019-03-01T21:37:59.636Z,101091.22
2019-03-01T21:40:28.063Z,101087.13
2019-03-01T21:42:59.819Z,101091.22
2019-03-01T21:45:26.808Z,101085.33
2019-03-01T21:47:55.284Z,101088.17
2019-03-01T21:50:23.719Z,101076.58
2019-03-01T21:52:52.158Z,101093.72
2019-03-01T21:57:14.257Z,101084.25
2019-03-01T21:57:55.789Z,101086.92
2019-03-01T22:00:29.957Z,101091.05
2019-03-01T22:02:56.631Z,101092.65
2019-03-01T22:05:25.068Z,101088.90
2019-03-01T22:07:53.549Z,101088.90
2019-03-01T22:10:22.003Z,101085.84
2019-03-01T22:12:50.424Z,101091.37
2019-03-01T22:15:25.635Z,101091.02
2019-03-01T22:17:54.044Z,101086.55
2019-03-01T22:20:23.121Z,101085.85
2019-03-01T22:22:51.633Z,101090.33
2019-03-01T22:25:20.061Z,101090.33
2019-03-01T22:27:48.573Z,101090.13
2019-03-01T22:30:33.229Z,101095.13
2019-03-01T22:33:01.696Z,101092.62
2019-03-01T22:35:30.157Z,101092.27
2019-03-01T22:38:01.029Z,101089.25
2019-03-01T22:40:29.422Z,101097.27
2019-03-01T22:42:58.072Z,101104.77
2019-03-01T22:45:26.522Z,101104.42
2019-03-01T22:47:54.981Z,101116.57
2019-03-01T22:50:23.439Z,101110.11
2019-03-01T22:52:51.952Z,101107.62
2019-03-01T22:55:20.754Z,101104.05
2019-03-01T22:57:49.287Z,101098.52
2019-03-01T23:00:47.717Z,101110.50
2019-03-01T23:03:18.819Z,101113.34
2019-03-01T23:05:47.151Z,101111.57
2019-03-01T23:08:15.688Z,101106.54
2019-03-01T23:10:44.245Z,101111.75
2019-03-01T23:13:12.701Z,101116.19
2019-03-01T23:15:43.451Z,101113.52
2019-03-01T23:18:11.324Z,101114.20
2019-03-01T23:20:39.885Z,101109.04
2019-03-01T23:23:08.389Z,101116.53
2019-03-01T23:25:36.888Z,101116.36
2019-03-01T23:28:08.274Z,101111.71
2019-03-01T23:30:35.531Z,101110.28
2019-03-01T23:33:04.130Z,101119.38
2019-03-01T23:35:32.704Z,101119.38
2019-03-01T23:38:01.145Z,101126.19
2019-03-01T23:40:32.703Z,101130.45
2019-03-01T23:42:59.768Z,101124.94
2019-03-01T23:45:28.221Z,101118.52
2019-03-01T23:47:56.672Z,101125.28
2019-03-01T23:50:25.117Z,101118.47
2019-03-01T23:52:54.908Z,101127.77
2019-03-01T23:55:23.777Z,101111.16
2019-03-01T23:57:52.231Z,101115.28
